sensor_id;sensor_type;location;lat;lon;timestamp;P1;durP1;ratioP1;P2;durP2;ratioP2
73879;SDS011;62211;42.986;23.256;2022-08-19T00:00:18;11.32;;;9.18;;
73879;SDS011;62211;42.986;23.256;2022-08-19T00:02:44;10.40;;;9.30;;
73879;SDS011;62211;42.986;23.256;2022-08-19T00:05:11;10.43;;;9.43;;
73879;SDS011;62211;42.986;23.256;2022-08-19T00:07:38;9.85;;;8.82;;
73879;SDS011;62211;42.986;23.256;2022-08-19T00:10:04;12.20;;;9.77;;
73879;SDS011;62211;42.986;23.256;2022-08-19T00:12:31;11.65;;;8.68;;
73879;SDS011;62211;42.986;23.256;2022-08-19T00:14:57;10.95;;;8.77;;
73879;SDS011;62211;42.986;23.256;2022-08-19T00:17:23;9.52;;;8.02;;
73879;SDS011;62211;42.986;23.256;2022-08-19T00:19:48;10.88;;;8.48;;
73879;SDS011;62211;42.986;23.256;2022-08-19T00:22:14;13.88;;;9.00;;
73879;SDS011;62211;42.986;23.256;2022-08-19T00:24:39;10.25;;;8.90;;
73879;SDS011;62211;42.986;23.256;2022-08-19T00:27:06;11.23;;;8.75;;
73879;SDS011;62211;42.986;23.256;2022-08-19T00:29:31;9.23;;;8.20;;
73879;SDS011;62211;42.986;23.256;2022-08-19T00:31:57;11.48;;;9.82;;
73879;SDS011;62211;42.986;23.256;2022-08-19T00:34:25;10.82;;;9.45;;
73879;SDS011;62211;42.986;23.256;2022-08-19T00:36:53;12.93;;;9.38;;
73879;SDS011;62211;42.986;23.256;2022-08-19T00:39:18;9.82;;;8.43;;
73879;SDS011;62211;42.986;23.256;2022-08-19T00:41:45;9.82;;;8.57;;
73879;SDS011;62211;42.986;23.256;2022-08-19T00:44:15;9.38;;;8.40;;
73879;SDS011;62211;42.986;23.256;2022-08-19T00:46:46;10.82;;;9.45;;
73879;SDS011;62211;42.986;23.256;2022-08-19T00:49:15;10.50;;;9.00;;
73879;SDS011;62211;42.986;23.256;2022-08-19T00:51:41;10.60;;;9.27;;
73879;SDS011;62211;42.986;23.256;2022-08-19T00:54:08;11.13;;;9.25;;
73879;SDS011;62211;42.986;23.256;2022-08-19T00:56:34;10.05;;;8.75;;
73879;SDS011;62211;42.986;23.256;2022-08-19T00:59:00;9.65;;;8.65;;
73879;SDS011;62211;42.986;23.256;2022-08-19T01:01:27;9.88;;;8.88;;
73879;SDS011;62211;42.986;23.256;2022-08-19T01:03:53;10.10;;;8.77;;
73879;SDS011;62211;42.986;23.256;2022-08-19T01:06:18;10.18;;;9.05;;
73879;SDS011;62211;42.986;23.256;2022-08-19T01:08:44;12.52;;;10.07;;
73879;SDS011;62211;42.986;23.256;2022-08-19T01:11:10;10.80;;;9.48;;
73879;SDS011;62211;42.986;23.256;2022-08-19T01:13:36;12.68;;;9.30;;
73879;SDS011;62211;42.986;23.256;2022-08-19T01:16:04;9.48;;;8.48;;
73879;SDS011;62211;42.986;23.256;2022-08-19T01:18:32;11.18;;;7.93;;
73879;SDS011;62211;42.986;23.256;2022-08-19T01:20:59;11.73;;;9.75;;
73879;SDS011;62211;42.986;23.256;2022-08-19T01:23:27;10.10;;;9.00;;
73879;SDS011;62211;42.986;23.256;2022-08-19T01:26:07;9.65;;;8.68;;
73879;SDS011;62211;42.986;23.256;2022-08-19T01:28:41;10.60;;;8.95;;
73879;SDS011;62211;42.986;23.256;2022-08-19T01:31:09;11.50;;;9.35;;
73879;SDS011;62211;42.986;23.256;2022-08-19T01:33:36;9.80;;;8.90;;
73879;SDS011;62211;42.986;23.256;2022-08-19T01:36:06;10.35;;;9.18;;
73879;SDS011;62211;42.986;23.256;2022-08-19T01:38:35;11.55;;;9.20;;
73879;SDS011;62211;42.986;23.256;2022-08-19T01:41:02;10.10;;;9.07;;
73879;SDS011;62211;42.986;23.256;2022-08-19T01:43:27;11.00;;;8.55;;
73879;SDS011;62211;42.986;23.256;2022-08-19T01:45:52;11.27;;;10.07;;
73879;SDS011;62211;42.986;23.256;2022-08-19T01:48:19;12.48;;;9.15;;
73879;SDS011;62211;42.986;23.256;2022-08-19T01:50:44;12.25;;;10.00;;
73879;SDS011;62211;42.986;23.256;2022-08-19T01:53:10;14.45;;;10.50;;
73879;SDS011;62211;42.986;23.256;2022-08-19T01:55:37;11.43;;;10.07;;
73879;SDS011;62211;42.986;23.256;2022-08-19T01:58:04;12.70;;;10.65;;
73879;SDS011;62211;42.986;23.256;2022-08-19T02:00:31;11.68;;;10.23;;
73879;SDS011;62211;42.986;23.256;2022-08-19T02:02:57;11.80;;;9.57;;
73879;SDS011;62211;42.986;23.256;2022-08-19T02:05:22;12.00;;;9.88;;
73879;SDS011;62211;42.986;23.256;2022-08-19T02:07:48;11.77;;;10.57;;
73879;SDS011;62211;42.986;23.256;2022-08-19T02:10:15;11.18;;;9.38;;
73879;SDS011;62211;42.986;23.256;2022-08-19T02:12:43;14.60;;;10.30;;
73879;SDS011;62211;42.986;23.256;2022-08-19T02:15:09;12.23;;;8.88;;
73879;SDS011;62211;42.986;23.256;2022-08-19T02:17:35;9.18;;;8.25;;
73879;SDS011;62211;42.986;23.256;2022-08-19T02:20:01;11.98;;;8.45;;
73879;SDS011;62211;42.986;23.256;2022-08-19T02:22:27;10.35;;;9.05;;
73879;SDS011;62211;42.986;23.256;2022-08-19T02:24:52;11.05;;;9.13;;
73879;SDS011;62211;42.986;23.256;2022-08-19T02:27:18;10.85;;;9.75;;
73879;SDS011;62211;42.986;23.256;2022-08-19T02:29:45;11.05;;;9.88;;
73879;SDS011;62211;42.986;23.256;2022-08-19T02:32:11;10.55;;;9.25;;
73879;SDS011;62211;42.986;23.256;2022-08-19T02:34:36;10.43;;;9.27;;
73879;SDS011;62211;42.986;23.256;2022-08-19T02:37:02;10.93;;;9.75;;
73879;SDS011;62211;42.986;23.256;2022-08-19T02:39:27;14.43;;;9.65;;
73879;SDS011;62211;42.986;23.256;2022-08-19T02:41:53;11.25;;;9.57;;
73879;SDS011;62211;42.986;23.256;2022-08-19T02:44:18;10.85;;;9.73;;
73879;SDS011;62211;42.986;23.256;2022-08-19T02:46:45;11.02;;;9.15;;
73879;SDS011;62211;42.986;23.256;2022-08-19T02:49:12;14.95;;;9.90;;
73879;SDS011;62211;42.986;23.256;2022-08-19T02:51:39;12.20;;;9.60;;
73879;SDS011;62211;42.986;23.256;2022-08-19T02:54:09;11.60;;;10.00;;
73879;SDS011;62211;42.986;23.256;2022-08-19T02:56:35;11.07;;;9.90;;
73879;SDS011;62211;42.986;23.256;2022-08-19T02:59:02;10.43;;;9.40;;
73879;SDS011;62211;42.986;23.256;2022-08-19T03:01:32;16.33;;;10.52;;
73879;SDS011;62211;42.986;23.256;2022-08-19T03:03:59;12.77;;;9.75;;
73879;SDS011;62211;42.986;23.256;2022-08-19T03:06:26;16.67;;;10.23;;
73879;SDS011;62211;42.986;23.256;2022-08-19T03:08:53;15.15;;;10.20;;
73879;SDS011;62211;42.986;23.256;2022-08-19T03:11:20;14.32;;;10.30;;
73879;SDS011;62211;42.986;23.256;2022-08-19T03:13:51;10.88;;;9.20;;
73879;SDS011;62211;42.986;23.256;2022-08-19T03:16:17;13.13;;;9.90;;
73879;SDS011;62211;42.986;23.256;2022-08-19T03:18:43;11.75;;;9.98;;
73879;SDS011;62211;42.986;23.256;2022-08-19T03:21:09;12.55;;;9.70;;
73879;SDS011;62211;42.986;23.256;2022-08-19T03:23:35;10.43;;;8.90;;
73879;SDS011;62211;42.986;23.256;2022-08-19T03:26:04;12.60;;;10.32;;
73879;SDS011;62211;42.986;23.256;2022-08-19T03:28:31;14.00;;;10.20;;
73879;SDS011;62211;42.986;23.256;2022-08-19T03:30:57;12.70;;;10.65;;
73879;SDS011;62211;42.986;23.256;2022-08-19T03:33:25;14.63;;;11.30;;
73879;SDS011;62211;42.986;23.256;2022-08-19T03:36:08;17.25;;;10.98;;
73879;SDS011;62211;42.986;23.256;2022-08-19T03:38:36;15.55;;;11.35;;
73879;SDS011;62211;42.986;23.256;2022-08-19T03:41:07;15.30;;;11.15;;
73879;SDS011;62211;42.986;23.256;2022-08-19T03:43:36;18.00;;;12.30;;
73879;SDS011;62211;42.986;23.256;2022-08-19T03:46:03;15.77;;;11.55;;
73879;SDS011;62211;42.986;23.256;2022-08-19T03:48:31;21.60;;;12.50;;
73879;SDS011;62211;42.986;23.256;2022-08-19T03:50:57;16.85;;;11.20;;
73879;SDS011;62211;42.986;23.256;2022-08-19T03:53:24;15.20;;;10.30;;
73879;SDS011;62211;42.986;23.256;2022-08-19T03:55:50;12.40;;;10.15;;
73879;SDS011;62211;42.986;23.256;2022-08-19T03:58:16;12.05;;;10.70;;
73879;SDS011;62211;42.986;23.256;2022-08-19T04:00:42;11.90;;;10.48;;
73879;SDS011;62211;42.986;23.256;2022-08-19T04:03:08;12.85;;;9.85;;
73879;SDS011;62211;42.986;23.256;2022-08-19T04:05:33;12.32;;;10.05;;
73879;SDS011;62211;42.986;23.256;2022-08-19T04:07:58;11.13;;;9.95;;
73879;SDS011;62211;42.986;23.256;2022-08-19T04:10:24;15.18;;;10.13;;
73879;SDS011;62211;42.986;23.256;2022-08-19T04:12:50;14.73;;;10.45;;
73879;SDS011;62211;42.986;23.256;2022-08-19T04:15:15;15.05;;;9.82;;
73879;SDS011;62211;42.986;23.256;2022-08-19T04:17:41;13.20;;;10.45;;
73879;SDS011;62211;42.986;23.256;2022-08-19T04:20:06;13.90;;;10.02;;
73879;SDS011;62211;42.986;23.256;2022-08-19T04:22:32;12.05;;;10.20;;
73879;SDS011;62211;42.986;23.256;2022-08-19T04:24:57;14.00;;;10.30;;
73879;SDS011;62211;42.986;23.256;2022-08-19T04:27:23;13.75;;;10.73;;
73879;SDS011;62211;42.986;23.256;2022-08-19T04:29:48;15.90;;;11.05;;
73879;SDS011;62211;42.986;23.256;2022-08-19T04:32:14;13.25;;;11.02;;
73879;SDS011;62211;42.986;23.256;2022-08-19T04:34:40;17.83;;;11.55;;
73879;SDS011;62211;42.986;23.256;2022-08-19T04:37:08;15.23;;;11.10;;
73879;SDS011;62211;42.986;23.256;2022-08-19T04:39:37;15.50;;;11.52;;
73879;SDS011;62211;42.986;23.256;2022-08-19T04:42:21;15.93;;;11.65;;
73879;SDS011;62211;42.986;23.256;2022-08-19T04:45:09;12.02;;;10.27;;
73879;SDS011;62211;42.986;23.256;2022-08-19T04:47:37;14.38;;;11.23;;
73879;SDS011;62211;42.986;23.256;2022-08-19T04:50:04;15.88;;;11.65;;
73879;SDS011;62211;42.986;23.256;2022-08-19T04:52:30;11.25;;;9.95;;
73879;SDS011;62211;42.986;23.256;2022-08-19T04:54:57;12.65;;;10.80;;
73879;SDS011;62211;42.986;23.256;2022-08-19T04:57:23;14.55;;;10.70;;
73879;SDS011;62211;42.986;23.256;2022-08-19T04:59:48;17.20;;;12.15;;
73879;SDS011;62211;42.986;23.256;2022-08-19T05:02:14;16.80;;;11.48;;
73879;SDS011;62211;42.986;23.256;2022-08-19T05:04:39;13.40;;;11.52;;
73879;SDS011;62211;42.986;23.256;2022-08-19T05:07:06;12.90;;;10.63;;
73879;SDS011;62211;42.986;23.256;2022-08-19T05:09:32;14.65;;;11.00;;
73879;SDS011;62211;42.986;23.256;2022-08-19T05:11:57;19.73;;;11.70;;
73879;SDS011;62211;42.986;23.256;2022-08-19T05:14:23;15.52;;;11.10;;
73879;SDS011;62211;42.986;23.256;2022-08-19T05:16:48;17.38;;;12.05;;
73879;SDS011;62211;42.986;23.256;2022-08-19T05:19:13;17.80;;;10.70;;
73879;SDS011;62211;42.986;23.256;2022-08-19T05:27:07;20.13;;;13.27;;
73879;SDS011;62211;42.986;23.256;2022-08-19T05:29:33;23.30;;;16.00;;
73879;SDS011;62211;42.986;23.256;2022-08-19T05:32:00;16.73;;;12.50;;
73879;SDS011;62211;42.986;23.256;2022-08-19T05:34:26;13.77;;;11.77;;
73879;SDS011;62211;42.986;23.256;2022-08-19T05:36:53;14.93;;;11.25;;
73879;SDS011;62211;42.986;23.256;2022-08-19T05:39:22;13.13;;;10.90;;
73879;SDS011;62211;42.986;23.256;2022-08-19T05:41:51;13.23;;;10.55;;
73879;SDS011;62211;42.986;23.256;2022-08-19T05:44:18;12.27;;;10.80;;
73879;SDS011;62211;42.986;23.256;2022-08-19T05:46:45;13.13;;;10.13;;
73879;SDS011;62211;42.986;23.256;2022-08-19T05:49:14;13.88;;;12.13;;
73879;SDS011;62211;42.986;23.256;2022-08-19T05:51:40;15.85;;;9.68;;
73879;SDS011;62211;42.986;23.256;2022-08-19T05:54:06;13.38;;;10.00;;
73879;SDS011;62211;42.986;23.256;2022-08-19T05:56:33;12.45;;;9.52;;
73879;SDS011;62211;42.986;23.256;2022-08-19T05:58:59;12.52;;;9.45;;
73879;SDS011;62211;42.986;23.256;2022-08-19T06:01:25;10.15;;;9.13;;
73879;SDS011;62211;42.986;23.256;2022-08-19T06:03:51;12.48;;;8.80;;
73879;SDS011;62211;42.986;23.256;2022-08-19T06:06:17;10.88;;;9.52;;
73879;SDS011;62211;42.986;23.256;2022-08-19T06:08:43;9.63;;;8.73;;
73879;SDS011;62211;42.986;23.256;2022-08-19T06:11:20;10.32;;;8.35;;
73879;SDS011;62211;42.986;23.256;2022-08-19T06:13:46;9.07;;;8.18;;
73879;SDS011;62211;42.986;23.256;2022-08-19T06:16:15;13.32;;;9.57;;
73879;SDS011;62211;42.986;23.256;2022-08-19T06:18:48;13.35;;;11.45;;
73879;SDS011;62211;42.986;23.256;2022-08-19T06:21:20;10.63;;;9.52;;
73879;SDS011;62211;42.986;23.256;2022-08-19T06:23:47;12.00;;;10.13;;
73879;SDS011;62211;42.986;23.256;2022-08-19T06:26:14;10.45;;;9.40;;
73879;SDS011;62211;42.986;23.256;2022-08-19T06:28:40;13.23;;;11.77;;
73879;SDS011;62211;42.986;23.256;2022-08-19T06:31:10;14.30;;;11.00;;
73879;SDS011;62211;42.986;23.256;2022-08-19T06:33:36;11.63;;;9.73;;
73879;SDS011;62211;42.986;23.256;2022-08-19T06:36:02;8.90;;;7.85;;
73879;SDS011;62211;42.986;23.256;2022-08-19T06:38:29;9.18;;;8.27;;
73879;SDS011;62211;42.986;23.256;2022-08-19T06:41:04;9.43;;;8.43;;
73879;SDS011;62211;42.986;23.256;2022-08-19T06:43:30;12.05;;;8.80;;
73879;SDS011;62211;42.986;23.256;2022-08-19T06:45:55;16.55;;;10.48;;
73879;SDS011;62211;42.986;23.256;2022-08-19T06:48:20;7.07;;;6.20;;
73879;SDS011;62211;42.986;23.256;2022-08-19T06:50:46;8.43;;;7.60;;
73879;SDS011;62211;42.986;23.256;2022-08-19T06:53:13;7.75;;;6.93;;
73879;SDS011;62211;42.986;23.256;2022-08-19T06:55:38;9.00;;;7.10;;
73879;SDS011;62211;42.986;23.256;2022-08-19T06:58:05;9.88;;;6.75;;
73879;SDS011;62211;42.986;23.256;2022-08-19T07:00:30;15.40;;;7.43;;
73879;SDS011;62211;42.986;23.256;2022-08-19T07:02:56;8.25;;;7.43;;
73879;SDS011;62211;42.986;23.256;2022-08-19T07:05:22;8.50;;;7.70;;
73879;SDS011;62211;42.986;23.256;2022-08-19T07:07:47;9.82;;;7.35;;
73879;SDS011;62211;42.986;23.256;2022-08-19T07:10:13;8.48;;;7.07;;
73879;SDS011;62211;42.986;23.256;2022-08-19T07:12:38;7.28;;;6.55;;
73879;SDS011;62211;42.986;23.256;2022-08-19T07:15:05;7.07;;;6.38;;
73879;SDS011;62211;42.986;23.256;2022-08-19T07:17:33;8.65;;;6.75;;
73879;SDS011;62211;42.986;23.256;2022-08-19T07:20:02;7.68;;;6.80;;
73879;SDS011;62211;42.986;23.256;2022-08-19T07:22:28;12.13;;;10.90;;
73879;SDS011;62211;42.986;23.256;2022-08-19T07:24:54;11.05;;;9.82;;
73879;SDS011;62211;42.986;23.256;2022-08-19T07:27:19;14.32;;;12.60;;
73879;SDS011;62211;42.986;23.256;2022-08-19T07:29:44;14.85;;;13.48;;
73879;SDS011;62211;42.986;23.256;2022-08-19T07:32:10;8.50;;;6.35;;
73879;SDS011;62211;42.986;23.256;2022-08-19T07:34:36;10.52;;;9.48;;
73879;SDS011;62211;42.986;23.256;2022-08-19T07:37:03;9.73;;;6.60;;
73879;SDS011;62211;42.986;23.256;2022-08-19T07:39:31;8.23;;;6.25;;
73879;SDS011;62211;42.986;23.256;2022-08-19T07:41:58;40.47;;;31.83;;
73879;SDS011;62211;42.986;23.256;2022-08-19T07:44:25;6.15;;;5.55;;
73879;SDS011;62211;42.986;23.256;2022-08-19T07:46:53;9.32;;;6.38;;
73879;SDS011;62211;42.986;23.256;2022-08-19T07:49:20;7.35;;;6.50;;
73879;SDS011;62211;42.986;23.256;2022-08-19T07:52:00;7.53;;;6.40;;
73879;SDS011;62211;42.986;23.256;2022-08-19T07:54:30;6.72;;;6.10;;
73879;SDS011;62211;42.986;23.256;2022-08-19T07:56:58;6.60;;;5.70;;
73879;SDS011;62211;42.986;23.256;2022-08-19T07:59:24;6.75;;;6.15;;
73879;SDS011;62211;42.986;23.256;2022-08-19T08:01:50;6.53;;;5.93;;
73879;SDS011;62211;42.986;23.256;2022-08-19T08:04:16;7.03;;;6.05;;
73879;SDS011;62211;42.986;23.256;2022-08-19T08:07:00;6.95;;;6.25;;
73879;SDS011;62211;42.986;23.256;2022-08-19T08:09:44;8.65;;;7.75;;
73879;SDS011;62211;42.986;23.256;2022-08-19T08:12:11;8.35;;;7.53;;
73879;SDS011;62211;42.986;23.256;2022-08-19T08:14:42;7.55;;;5.90;;
73879;SDS011;62211;42.986;23.256;2022-08-19T08:17:11;6.40;;;5.80;;
73879;SDS011;62211;42.986;23.256;2022-08-19T08:19:37;10.88;;;8.25;;
73879;SDS011;62211;42.986;23.256;2022-08-19T08:22:06;8.95;;;6.80;;
73879;SDS011;62211;42.986;23.256;2022-08-19T08:24:32;8.07;;;5.72;;
73879;SDS011;62211;42.986;23.256;2022-08-19T08:26:58;6.22;;;5.63;;
73879;SDS011;62211;42.986;23.256;2022-08-19T08:29:26;5.40;;;4.90;;
73879;SDS011;62211;42.986;23.256;2022-08-19T08:31:55;5.65;;;5.25;;
73879;SDS011;62211;42.986;23.256;2022-08-19T08:34:22;9.68;;;5.43;;
73879;SDS011;62211;42.986;23.256;2022-08-19T08:36:47;5.90;;;5.40;;
73879;SDS011;62211;42.986;23.256;2022-08-19T08:39:17;7.45;;;4.80;;
73879;SDS011;62211;42.986;23.256;2022-08-19T08:41:51;8.65;;;4.97;;
73879;SDS011;62211;42.986;23.256;2022-08-19T08:44:29;6.60;;;4.95;;
73879;SDS011;62211;42.986;23.256;2022-08-19T08:46:58;5.03;;;4.55;;
73879;SDS011;62211;42.986;23.256;2022-08-19T08:52:24;8.82;;;7.63;;
73879;SDS011;62211;42.986;23.256;2022-08-19T08:54:52;9.77;;;5.25;;
73879;SDS011;62211;42.986;23.256;2022-08-19T08:57:22;4.70;;;3.90;;
73879;SDS011;62211;42.986;23.256;2022-08-19T08:59:53;5.25;;;4.70;;
73879;SDS011;62211;42.986;23.256;2022-08-19T09:02:19;5.03;;;4.07;;
73879;SDS011;62211;42.986;23.256;2022-08-19T09:04:45;4.80;;;3.90;;
73879;SDS011;62211;42.986;23.256;2022-08-19T09:07:24;5.10;;;4.60;;
73879;SDS011;62211;42.986;23.256;2022-08-19T09:15:31;4.93;;;4.07;;
73879;SDS011;62211;42.986;23.256;2022-08-19T09:18:02;5.82;;;4.60;;
73879;SDS011;62211;42.986;23.256;2022-08-19T09:20:29;5.43;;;4.22;;
73879;SDS011;62211;42.986;23.256;2022-08-19T09:22:56;5.72;;;5.22;;
73879;SDS011;62211;42.986;23.256;2022-08-19T09:25:22;4.38;;;4.03;;
73879;SDS011;62211;42.986;23.256;2022-08-19T09:27:55;20.42;;;15.00;;
73879;SDS011;62211;42.986;23.256;2022-08-19T09:30:31;10.48;;;6.95;;
73879;SDS011;62211;42.986;23.256;2022-08-19T09:35:47;5.80;;;4.75;;
73879;SDS011;62211;42.986;23.256;2022-08-19T09:38:12;6.07;;;4.45;;
73879;SDS011;62211;42.986;23.256;2022-08-19T09:41:01;4.75;;;4.35;;
73879;SDS011;62211;42.986;23.256;2022-08-19T09:43:30;10.70;;;8.02;;
73879;SDS011;62211;42.986;23.256;2022-08-19T09:48:57;5.00;;;4.50;;
73879;SDS011;62211;42.986;23.256;2022-08-19T09:51:24;5.07;;;4.57;;
73879;SDS011;62211;42.986;23.256;2022-08-19T09:53:53;5.13;;;3.92;;
73879;SDS011;62211;42.986;23.256;2022-08-19T09:56:19;5.50;;;4.35;;
73879;SDS011;62211;42.986;23.256;2022-08-19T09:58:46;7.22;;;4.65;;
73879;SDS011;62211;42.986;23.256;2022-08-19T10:01:16;7.28;;;4.28;;
73879;SDS011;62211;42.986;23.256;2022-08-19T10:03:52;5.30;;;4.80;;
73879;SDS011;62211;42.986;23.256;2022-08-19T10:06:20;5.32;;;4.90;;
73879;SDS011;62211;42.986;23.256;2022-08-19T10:08:48;5.70;;;5.18;;
73879;SDS011;62211;42.986;23.256;2022-08-19T10:11:13;5.07;;;4.63;;
73879;SDS011;62211;42.986;23.256;2022-08-19T10:13:41;5.95;;;4.65;;
73879;SDS011;62211;42.986;23.256;2022-08-19T10:16:08;5.32;;;4.80;;
73879;SDS011;62211;42.986;23.256;2022-08-19T10:18:36;5.80;;;4.68;;
73879;SDS011;62211;42.986;23.256;2022-08-19T10:21:04;4.85;;;4.32;;
73879;SDS011;62211;42.986;23.256;2022-08-19T10:26:07;4.95;;;4.40;;
73879;SDS011;62211;42.986;23.256;2022-08-19T10:28:34;4.68;;;4.28;;
73879;SDS011;62211;42.986;23.256;2022-08-19T10:31:09;4.88;;;4.47;;
73879;SDS011;62211;42.986;23.256;2022-08-19T10:33:40;5.47;;;4.68;;
73879;SDS011;62211;42.986;23.256;2022-08-19T10:36:07;6.55;;;4.47;;
73879;SDS011;62211;42.986;23.256;2022-08-19T10:38:35;6.63;;;4.38;;
73879;SDS011;62211;42.986;23.256;2022-08-19T10:41:11;10.55;;;5.55;;
73879;SDS011;62211;42.986;23.256;2022-08-19T10:43:41;4.80;;;4.30;;
73879;SDS011;62211;42.986;23.256;2022-08-19T10:46:07;5.25;;;4.72;;
73879;SDS011;62211;42.986;23.256;2022-08-19T10:48:35;11.02;;;9.85;;
73879;SDS011;62211;42.986;23.256;2022-08-19T10:51:00;6.13;;;5.63;;
73879;SDS011;62211;42.986;23.256;2022-08-19T10:53:45;7.32;;;6.38;;
73879;SDS011;62211;42.986;23.256;2022-08-19T10:56:10;5.90;;;5.35;;
73879;SDS011;62211;42.986;23.256;2022-08-19T10:58:54;4.90;;;4.32;;
73879;SDS011;62211;42.986;23.256;2022-08-19T11:01:21;7.82;;;4.85;;
73879;SDS011;62211;42.986;23.256;2022-08-19T11:03:47;6.53;;;4.53;;
73879;SDS011;62211;42.986;23.256;2022-08-19T11:06:12;6.07;;;5.63;;
73879;SDS011;62211;42.986;23.256;2022-08-19T11:08:38;5.40;;;4.82;;
73879;SDS011;62211;42.986;23.256;2022-08-19T11:11:04;6.00;;;4.80;;
73879;SDS011;62211;42.986;23.256;2022-08-19T11:13:32;5.13;;;4.63;;
73879;SDS011;62211;42.986;23.256;2022-08-19T11:16:03;7.47;;;5.88;;
73879;SDS011;62211;42.986;23.256;2022-08-19T11:18:32;6.03;;;4.70;;
73879;SDS011;62211;42.986;23.256;2022-08-19T11:21:13;7.15;;;4.78;;
73879;SDS011;62211;42.986;23.256;2022-08-19T11:23:44;6.18;;;5.07;;
73879;SDS011;62211;42.986;23.256;2022-08-19T11:26:10;5.85;;;5.25;;
73879;SDS011;62211;42.986;23.256;2022-08-19T11:28:36;5.93;;;5.03;;
73879;SDS011;62211;42.986;23.256;2022-08-19T11:31:01;6.05;;;5.18;;
73879;SDS011;62211;42.986;23.256;2022-08-19T11:33:28;7.68;;;5.10;;
73879;SDS011;62211;42.986;23.256;2022-08-19T11:35:56;6.28;;;5.68;;
73879;SDS011;62211;42.986;23.256;2022-08-19T11:38:23;7.13;;;5.38;;
73879;SDS011;62211;42.986;23.256;2022-08-19T11:40:56;6.60;;;5.55;;
73879;SDS011;62211;42.986;23.256;2022-08-19T11:43:25;8.85;;;5.90;;
73879;SDS011;62211;42.986;23.256;2022-08-19T11:45:52;5.57;;;5.07;;
73879;SDS011;62211;42.986;23.256;2022-08-19T11:48:18;5.15;;;4.60;;
73879;SDS011;62211;42.986;23.256;2022-08-19T11:50:47;6.95;;;5.78;;
73879;SDS011;62211;42.986;23.256;2022-08-19T11:53:21;7.45;;;4.85;;
73879;SDS011;62211;42.986;23.256;2022-08-19T11:55:47;6.82;;;5.50;;
73879;SDS011;62211;42.986;23.256;2022-08-19T11:58:14;6.43;;;5.20;;
73879;SDS011;62211;42.986;23.256;2022-08-19T12:00:41;5.55;;;5.03;;
73879;SDS011;62211;42.986;23.256;2022-08-19T12:03:06;7.95;;;5.50;;
73879;SDS011;62211;42.986;23.256;2022-08-19T12:05:32;8.88;;;6.05;;
73879;SDS011;62211;42.986;23.256;2022-08-19T12:07:58;5.80;;;4.78;;
73879;SDS011;62211;42.986;23.256;2022-08-19T12:10:23;11.93;;;6.05;;
73879;SDS011;62211;42.986;23.256;2022-08-19T12:12:49;6.28;;;5.20;;
73879;SDS011;62211;42.986;23.256;2022-08-19T12:15:15;7.13;;;5.30;;
73879;SDS011;62211;42.986;23.256;2022-08-19T12:17:41;5.97;;;5.38;;
73879;SDS011;62211;42.986;23.256;2022-08-19T12:20:07;5.55;;;5.05;;
73879;SDS011;62211;42.986;23.256;2022-08-19T12:22:35;6.53;;;4.55;;
73879;SDS011;62211;42.986;23.256;2022-08-19T12:25:02;6.55;;;5.25;;
73879;SDS011;62211;42.986;23.256;2022-08-19T12:27:28;9.77;;;5.20;;
73879;SDS011;62211;42.986;23.256;2022-08-19T12:29:53;6.32;;;4.80;;
73879;SDS011;62211;42.986;23.256;2022-08-19T12:32:18;9.65;;;5.70;;
73879;SDS011;62211;42.986;23.256;2022-08-19T12:34:44;6.93;;;4.65;;
73879;SDS011;62211;42.986;23.256;2022-08-19T12:37:12;5.25;;;4.80;;
73879;SDS011;62211;42.986;23.256;2022-08-19T12:39:39;4.75;;;4.32;;
73879;SDS011;62211;42.986;23.256;2022-08-19T12:42:06;6.45;;;4.90;;
73879;SDS011;62211;42.986;23.256;2022-08-19T12:44:33;7.38;;;4.90;;
73879;SDS011;62211;42.986;23.256;2022-08-19T12:46:58;6.97;;;4.80;;
73879;SDS011;62211;42.986;23.256;2022-08-19T12:49:24;7.63;;;4.82;;
73879;SDS011;62211;42.986;23.256;2022-08-19T12:51:50;5.68;;;4.95;;
73879;SDS011;62211;42.986;23.256;2022-08-19T12:54:15;9.43;;;6.13;;
73879;SDS011;62211;42.986;23.256;2022-08-19T13:00:04;7.90;;;4.88;;
73879;SDS011;62211;42.986;23.256;2022-08-19T13:02:35;10.85;;;9.85;;
73879;SDS011;62211;42.986;23.256;2022-08-19T13:05:01;6.72;;;6.03;;
73879;SDS011;62211;42.986;23.256;2022-08-19T13:07:26;7.60;;;5.07;;
73879;SDS011;62211;42.986;23.256;2022-08-19T13:09:52;7.65;;;5.40;;
73879;SDS011;62211;42.986;23.256;2022-08-19T13:12:17;5.13;;;4.63;;
73879;SDS011;62211;42.986;23.256;2022-08-19T13:14:45;8.35;;;5.10;;
73879;SDS011;62211;42.986;23.256;2022-08-19T13:17:14;5.40;;;4.97;;
73879;SDS011;62211;42.986;23.256;2022-08-19T13:19:40;7.57;;;5.40;;
73879;SDS011;62211;42.986;23.256;2022-08-19T13:22:06;5.72;;;5.13;;
73879;SDS011;62211;42.986;23.256;2022-08-19T13:24:32;4.78;;;4.40;;
73879;SDS011;62211;42.986;23.256;2022-08-19T13:26:58;6.93;;;5.25;;
73879;SDS011;62211;42.986;23.256;2022-08-19T13:32:46;5.15;;;4.43;;
73879;SDS011;62211;42.986;23.256;2022-08-19T13:35:30;5.65;;;4.90;;
73879;SDS011;62211;42.986;23.256;2022-08-19T13:37:55;7.00;;;3.95;;
73879;SDS011;62211;42.986;23.256;2022-08-19T13:40:23;5.07;;;4.60;;
73879;SDS011;62211;42.986;23.256;2022-08-19T13:42:51;8.32;;;4.68;;
73879;SDS011;62211;42.986;23.256;2022-08-19T13:45:20;5.40;;;4.47;;
73879;SDS011;62211;42.986;23.256;2022-08-19T13:47:49;5.72;;;4.32;;
73879;SDS011;62211;42.986;23.256;2022-08-19T13:50:17;8.25;;;5.22;;
73879;SDS011;62211;42.986;23.256;2022-08-19T13:52:44;13.50;;;5.18;;
73879;SDS011;62211;42.986;23.256;2022-08-19T13:55:10;4.97;;;4.57;;
73879;SDS011;62211;42.986;23.256;2022-08-19T13:57:36;8.07;;;4.45;;
73879;SDS011;62211;42.986;23.256;2022-08-19T14:00:04;6.15;;;5.05;;
73879;SDS011;62211;42.986;23.256;2022-08-19T14:02:42;5.93;;;4.82;;
73879;SDS011;62211;42.986;23.256;2022-08-19T14:05:10;4.80;;;4.38;;
73879;SDS011;62211;42.986;23.256;2022-08-19T14:07:36;6.40;;;4.70;;
73879;SDS011;62211;42.986;23.256;2022-08-19T14:10:05;8.10;;;4.93;;
73879;SDS011;62211;42.986;23.256;2022-08-19T14:12:32;5.90;;;4.32;;
73879;SDS011;62211;42.986;23.256;2022-08-19T14:14:58;5.25;;;4.60;;
73879;SDS011;62211;42.986;23.256;2022-08-19T14:17:24;5.32;;;4.93;;
73879;SDS011;62211;42.986;23.256;2022-08-19T14:19:50;5.25;;;4.13;;
73879;SDS011;62211;42.986;23.256;2022-08-19T14:22:20;4.88;;;4.47;;
73879;SDS011;62211;42.986;23.256;2022-08-19T14:24:47;4.60;;;4.20;;
73879;SDS011;62211;42.986;23.256;2022-08-19T14:27:13;5.93;;;4.78;;
73879;SDS011;62211;42.986;23.256;2022-08-19T14:29:39;7.82;;;4.50;;
73879;SDS011;62211;42.986;23.256;2022-08-19T14:32:05;7.50;;;4.40;;
73879;SDS011;62211;42.986;23.256;2022-08-19T14:34:30;7.10;;;4.85;;
73879;SDS011;62211;42.986;23.256;2022-08-19T14:36:57;5.32;;;4.82;;
73879;SDS011;62211;42.986;23.256;2022-08-19T14:39:22;5.53;;;4.55;;
73879;SDS011;62211;42.986;23.256;2022-08-19T14:41:48;5.72;;;4.53;;
73879;SDS011;62211;42.986;23.256;2022-08-19T14:44:13;7.68;;;4.55;;
73879;SDS011;62211;42.986;23.256;2022-08-19T14:46:39;5.65;;;4.20;;
73879;SDS011;62211;42.986;23.256;2022-08-19T14:49:05;5.45;;;4.35;;
73879;SDS011;62211;42.986;23.256;2022-08-19T14:51:31;5.68;;;4.68;;
73879;SDS011;62211;42.986;23.256;2022-08-19T14:53:56;4.32;;;3.92;;
73879;SDS011;62211;42.986;23.256;2022-08-19T14:56:23;8.48;;;4.20;;